Time;durP1;ratioP1;P1;durP2;ratioP2;P2;SDS_P1;SDS_P2;PMS_P1;PMS_P2;Temp;Humidity;BMP_temperature;BMP_pressure;BME280_temperature;BME280_humidity;BME280_pressure;Samples;Min_cycle;Max_cycle;Signal;HPM_P1;HPM_P2
2023/05/04 00:01:35;;;;;;;3.57;3.37;;;;;;;11.93;82.67;95931.81;4315274;33;20198;-57
2023/05/04 00:04:02;;;;;;;2.60;2.50;;;;;;;11.86;82.53;95926.84;4336466;32;20188;-56
2023/05/04 00:06:30;;;;;;;2.43;2.33;;;;;;;11.77;82.77;95933.88;4290942;33;20198;-57
2023/05/04 00:08:57;;;;;;;2.90;2.70;;;;;;;11.74;83.04;95931.75;4310836;32;20189;-58
2023/05/04 00:11:23;;;;;;;4.50;4.23;;;;;;;11.58;83.83;95928.50;4305814;32;20212;-56
2023/05/04 00:13:49;;;;;;;3.17;3.07;;;;;;;11.64;83.85;95927.34;4344793;32;20197;-57
2023/05/04 00:16:19;;;;;;;4.87;3.73;;;;;;;11.62;83.92;95926.88;4333449;32;20196;-57
2023/05/04 00:18:44;;;;;;;4.07;3.30;;;;;;;11.55;83.71;95925.63;4336561;32;20211;-57
2023/05/04 00:21:10;;;;;;;3.50;3.30;;;;;;;11.58;84.01;95925.84;4333379;32;20194;-57
2023/05/04 00:23:35;;;;;;;3.27;3.13;;;;;;;11.63;83.43;95917.81;4309750;33;20216;-57
2023/05/04 00:26:02;;;;;;;2.73;2.63;;;;;;;11.67;83.13;95915.34;4331695;32;20220;-57
2023/05/04 00:28:28;;;;;;;3.70;3.50;;;;;;;11.41;84.03;95917.56;4283755;32;20193;-58
2023/05/04 00:30:56;;;;;;;2.80;2.70;;;;;;;11.62;83.22;95916.22;4320504;32;20211;-56
2023/05/04 00:33:23;;;;;;;3.63;3.43;;;;;;;11.49;83.58;95916.91;4325236;32;20196;-57
2023/05/04 00:35:50;;;;;;;2.30;2.20;;;;;;;11.42;83.85;95915.69;4313051;32;20209;-57
2023/05/04 00:38:17;;;;;;;2.80;2.70;;;;;;;11.34;84.13;95906.47;4328068;32;20242;-56
2023/05/04 00:40:44;;;;;;;3.67;3.47;;;;;;;11.33;83.95;95907.53;4308590;32;20194;-58
2023/05/04 00:43:11;;;;;;;3.93;3.73;;;;;;;11.36;84.02;95901.66;4313092;32;20193;-57
2023/05/04 00:45:37;;;;;;;2.90;2.70;;;;;;;11.44;83.17;95908.19;4300476;32;20202;-55
2023/05/04 00:48:05;;;;;;;3.97;3.77;;;;;;;11.38;82.95;95896.06;4303630;32;20201;-56
2023/05/04 00:50:35;;;;;;;2.73;2.63;;;;;;;11.16;83.46;95907.19;4317854;32;20194;-56
2023/05/04 00:53:08;;;;;;;3.40;3.20;;;;;;;11.13;83.94;95905.09;4353242;32;20212;-57
2023/05/04 00:55:42;;;;;;;2.27;2.17;;;;;;;11.18;83.91;95899.75;4323429;32;20224;-56
2023/05/04 00:58:09;;;;;;;2.50;2.40;;;;;;;11.23;83.45;95897.00;4336567;32;20219;-56
2023/05/04 01:00:35;;;;;;;4.33;3.87;;;;;;;11.32;83.13;95896.12;4317327;32;20257;-57
2023/05/04 01:03:01;;;;;;;3.90;3.70;;;;;;;11.21;83.58;95905.28;4327449;32;20272;-58
2023/05/04 01:05:37;;;;;;;3.70;3.50;;;;;;;11.22;83.34;95911.41;4317049;32;20205;-55
2023/05/04 01:08:12;;;;;;;3.87;3.67;;;;;;;11.12;83.71;95900.87;4320613;33;20189;-58
2023/05/04 01:10:41;;;;;;;3.47;3.27;;;;;;;11.11;83.55;95909.91;4306936;32;20189;-57
2023/05/04 01:13:15;;;;;;;3.17;2.97;;;;;;;11.30;83.20;95902.78;4309551;32;20209;-58
2023/05/04 01:15:42;;;;;;;3.43;3.23;;;;;;;11.30;82.60;95906.22;4301982;32;20202;-57
2023/05/04 01:18:09;;;;;;;2.63;2.53;;;;;;;11.27;82.47;95903.34;4283252;33;20235;-58
2023/05/04 01:20:36;;;;;;;3.47;3.17;;;;;;;11.28;82.48;95902.28;4304942;32;20241;-57
2023/05/04 01:23:03;;;;;;;3.67;3.47;;;;;;;11.28;82.42;95889.78;4311827;33;20216;-57
2023/05/04 01:25:33;;;;;;;3.37;2.83;;;;;;;11.26;82.25;95897.25;4331305;32;20197;-57
2023/05/04 01:28:17;;;;;;;3.67;3.47;;;;;;;11.18;82.56;95910.38;4328818;32;20201;-57
2023/05/04 01:30:45;;;;;;;3.47;3.27;;;;;;;11.02;83.14;95907.06;4319396;32;20265;-58
2023/05/04 01:33:11;;;;;;;2.90;2.70;;;;;;;10.97;83.20;95905.28;4335636;32;20211;-57
2023/05/04 01:35:38;;;;;;;4.27;4.00;;;;;;;10.96;83.43;95902.88;4303463;33;20190;-58
2023/05/04 01:38:05;;;;;;;2.83;2.73;;;;;;;10.94;83.60;95899.72;4324311;32;20209;-57
2023/05/04 01:40:31;;;;;;;2.97;2.77;;;;;;;10.96;83.49;95902.88;4297294;32;20186;-58
2023/05/04 01:42:59;;;;;;;3.80;3.60;;;;;;;10.92;83.46;95901.88;4328039;32;20262;-57
2023/05/04 01:45:25;;;;;;;3.40;3.20;;;;;;;10.94;83.55;95902.38;4335974;32;20182;-57
2023/05/04 01:47:52;;;;;;;3.20;3.10;;;;;;;10.95;83.52;95901.31;4320190;32;20214;-55
2023/05/04 01:50:19;;;;;;;6.00;3.43;;;;;;;10.94;83.42;95905.81;4320847;32;20204;-58
2023/05/04 01:52:45;;;;;;;12.87;3.40;;;;;;;10.85;83.91;95904.03;4304397;32;20284;-56
2023/05/04 01:55:10;;;;;;;3.33;3.13;;;;;;;10.77;84.13;95894.06;4324462;32;20189;-57
2023/05/04 01:57:36;;;;;;;3.40;3.20;;;;;;;10.88;84.04;95901.63;4325539;32;20301;-58
2023/05/04 02:00:02;;;;;;;3.03;2.93;;;;;;;10.81;83.97;95895.84;4321490;32;20201;-56
2023/05/04 02:02:28;;;;;;;3.77;3.57;;;;;;;10.56;85.15;95901.41;4333119;32;20236;-57
2023/05/04 02:04:53;;;;;;;3.73;3.53;;;;;;;10.60;85.22;95894.44;4321545;32;20189;-58
2023/05/04 02:07:19;;;;;;;8.23;4.33;;;;;;;10.64;85.04;95896.28;4319628;32;20210;-57
2023/05/04 02:09:45;;;;;;;2.87;2.77;;;;;;;10.70;84.85;95894.38;4337732;32;20193;-58
2023/05/04 02:12:10;;;;;;;3.30;3.10;;;;;;;10.65;85.22;95897.06;4332860;32;20204;-55
2023/05/04 02:14:40;;;;;;;6.80;3.60;;;;;;;10.69;84.83;95887.47;4335878;32;20189;-58
2023/05/04 02:17:06;;;;;;;3.77;3.57;;;;;;;10.71;84.91;95893.31;4312506;33;20229;-56
2023/05/04 02:19:33;;;;;;;3.67;3.47;;;;;;;10.74;84.55;95890.09;4323244;32;20292;-55
2023/05/04 02:21:58;;;;;;;2.53;2.43;;;;;;;10.51;85.26;95888.97;4319712;32;20197;-56
2023/05/04 02:24:25;;;;;;;4.10;3.80;;;;;;;10.61;85.00;95890.72;4325094;32;20232;-55
2023/05/04 02:26:52;;;;;;;3.10;2.97;;;;;;;10.57;85.06;95892.37;4322497;33;20249;-55
2023/05/04 02:29:19;;;;;;;2.40;2.30;;;;;;;10.69;84.66;95884.81;4335173;32;20203;-51
2023/05/04 02:31:45;;;;;;;4.20;4.00;;;;;;;10.87;84.10;95897.38;4326265;33;20232;-55
2023/05/04 02:34:14;;;;;;;2.87;2.77;;;;;;;10.78;84.29;95891.13;4326527;33;20280;-57
2023/05/04 02:36:42;;;;;;;3.93;3.73;;;;;;;10.49;85.25;95892.97;4300562;33;20213;-52
2023/05/04 02:39:07;;;;;;;4.90;4.50;;;;;;;10.53;85.29;95886.84;4313170;33;20193;-56
2023/05/04 02:41:34;;;;;;;3.57;3.37;;;;;;;10.65;84.96;95891.75;4320243;33;20197;-56
2023/05/04 02:44:00;;;;;;;3.73;3.53;;;;;;;10.66;84.87;95891.47;4304415;33;20182;-54
2023/05/04 02:46:28;;;;;;;4.10;3.90;;;;;;;10.59;85.08;95895.56;4315172;32;20245;-56
2023/05/04 02:48:53;;;;;;;7.47;4.67;;;;;;;10.66;84.95;95891.47;4311777;32;20205;-57
2023/05/04 02:51:18;;;;;;;3.73;3.43;;;;;;;10.48;85.28;95886.06;4279842;33;20198;-57
2023/05/04 02:53:43;;;;;;;4.27;3.87;;;;;;;10.44;85.75;95893.00;4304452;33;20248;-56
2023/05/04 02:56:09;;;;;;;4.50;4.20;;;;;;;10.53;85.45;95888.69;4292809;33;20224;-57
2023/05/04 02:58:37;;;;;;;3.90;3.73;;;;;;;10.57;85.31;95892.37;4279870;33;20225;-57
2023/05/04 03:01:02;;;;;;;4.13;3.93;;;;;;;10.63;84.71;95896.56;4296798;33;20198;-56
2023/05/04 03:03:28;;;;;;;4.90;4.50;;;;;;;10.59;85.10;95896.34;4311395;33;20241;-57
2023/05/04 03:05:53;;;;;;;3.07;2.97;;;;;;;10.64;84.53;95890.97;4322443;33;20194;-57
2023/05/04 03:08:19;;;;;;;4.20;4.00;;;;;;;10.54;85.25;95896.38;4285334;33;20191;-57
2023/05/04 03:10:47;;;;;;;3.80;3.57;;;;;;;10.50;85.15;95891.91;4309829;33;20248;-57
2023/05/04 03:13:15;;;;;;;3.73;3.50;;;;;;;10.33;86.10;95887.00;4300337;33;20263;-56
2023/05/04 03:15:43;;;;;;;2.73;2.60;;;;;;;10.37;85.91;95887.25;4300189;32;20209;-57
2023/05/04 03:18:09;;;;;;;3.17;3.07;;;;;;;10.47;85.79;95889.78;4311849;33;20209;-54
2023/05/04 03:20:36;;;;;;;5.40;5.10;;;;;;;10.52;85.28;95892.41;4329271;32;20251;-57
2023/05/04 03:23:01;;;;;;;4.23;3.93;;;;;;;10.48;85.29;95884.22;4308090;33;20190;-57
2023/05/04 03:25:29;;;;;;;5.93;5.47;;;;;;;10.39;85.68;95895.72;4321456;33;20273;-57
2023/05/04 03:27:56;;;;;;;4.60;4.30;;;;;;;10.18;86.47;95893.19;4322031;32;20328;-55
2023/05/04 03:30:22;;;;;;;3.93;3.63;;;;;;;10.01;87.44;95895.41;4319576;33;20209;-57
2023/05/04 03:32:51;;;;;;;5.57;4.70;;;;;;;9.94;87.94;95887.78;4330598;32;20204;-55
2023/05/04 03:35:17;;;;;;;4.67;4.37;;;;;;;10.02;87.91;95885.59;4323776;32;20247;-56
2023/05/04 03:37:45;;;;;;;2.47;2.33;;;;;;;9.95;87.82;95888.56;4302081;32;20276;-58
2023/05/04 03:40:12;;;;;;;4.23;4.03;;;;;;;10.13;87.31;95882.63;4308333;32;20240;-57
2023/05/04 03:42:39;;;;;;;3.20;3.07;;;;;;;10.08;87.37;95887.16;4288472;33;20255;-56
2023/05/04 03:45:06;;;;;;;4.33;4.13;;;;;;;10.10;87.52;95888.47;4321795;32;20261;-58
2023/05/04 03:47:32;;;;;;;5.63;5.23;;;;;;;10.16;87.39;95886.56;4324909;32;20253;-58
2023/05/04 03:49:58;;;;;;;5.23;4.90;;;;;;;10.07;87.64;95885.56;4332845;32;20184;-56
2023/05/04 03:52:24;;;;;;;4.87;4.53;;;;;;;9.86;88.05;95884.91;4341249;32;20285;-58
2023/05/04 03:54:50;;;;;;;4.07;3.87;;;;;;;10.10;87.48;95880.50;4329505;32;20194;-56
2023/05/04 03:57:16;;;;;;;3.70;3.40;;;;;;;9.99;87.93;95884.28;4314118;33;20228;-57
2023/05/04 03:59:43;;;;;;;4.77;4.47;;;;;;;10.00;87.87;95880.56;4296150;32;20215;-57
2023/05/04 04:02:09;;;;;;;4.87;4.47;;;;;;;9.91;88.14;95882.22;4303443;32;20243;-56
2023/05/04 04:04:34;;;;;;;5.00;4.70;;;;;;;10.01;87.73;95882.16;4328348;32;20190;-57
2023/05/04 04:07:02;;;;;;;5.50;5.17;;;;;;;9.90;88.05;95880.63;4320820;32;20197;-57
2023/05/04 04:09:29;;;;;;;4.43;4.23;;;;;;;9.85;88.72;95880.66;4316071;32;20193;-56
2023/05/04 04:11:54;;;;;;;4.07;3.83;;;;;;;9.79;88.81;95876.44;4297888;32;20257;-57
2023/05/04 04:14:19;;;;;;;3.73;3.53;;;;;;;9.93;88.30;95880.09;4322371;33;20213;-57
2023/05/04 04:16:46;;;;;;;4.37;4.07;;;;;;;10.00;87.97;95883.22;4314320;32;20277;-57
2023/05/04 04:19:13;;;;;;;5.10;4.80;;;;;;;10.11;87.42;95887.41;4337210;32;20281;-57
2023/05/04 04:21:39;;;;;;;6.97;3.80;;;;;;;9.98;87.60;95880.84;4331199;32;20288;-58
2023/05/04 04:24:14;;;;;;;4.17;3.80;;;;;;;9.95;88.22;95889.34;4330038;32;20208;-56
2023/05/04 04:26:42;;;;;;;3.97;3.67;;;;;;;9.86;88.15;95888.34;4293426;33;20249;-56
2023/05/04 04:29:07;;;;;;;4.40;4.10;;;;;;;9.82;88.80;95882.00;4318944;33;20216;-57
2023/05/04 04:31:32;;;;;;;5.00;4.60;;;;;;;9.91;88.55;95882.22;4324183;32;20198;-56
2023/05/04 04:33:58;;;;;;;4.97;4.67;;;;;;;9.98;88.22;95882.69;4298987;33;20245;-56
2023/05/04 04:36:24;;;;;;;4.93;4.63;;;;;;;9.81;88.83;95887.56;4300886;32;20199;-55
2023/05/04 04:38:50;;;;;;;3.87;3.67;;;;;;;9.75;89.04;95878.09;4320430;32;20205;-55
2023/05/04 04:41:17;;;;;;;4.53;4.33;;;;;;;9.93;88.79;95888.03;4330252;32;20233;-57
2023/05/04 04:43:45;;;;;;;4.07;3.77;;;;;;;9.68;89.64;95888.19;4292701;32;20204;-57
2023/05/04 04:46:11;;;;;;;3.40;3.30;;;;;;;9.88;89.34;95894.16;4293325;33;20193;-58
2023/05/04 04:48:36;;;;;;;4.60;4.20;;;;;;;9.87;89.27;95891.78;4318319;32;20259;-58
2023/05/04 04:51:08;;;;;;;4.50;4.07;;;;;;;9.97;88.67;95897.84;4342581;32;20190;-58
2023/05/04 04:53:36;;;;;;;4.23;4.03;;;;;;;9.80;88.91;95892.06;4302984;33;20193;-56
2023/05/04 04:56:06;;;;;;;4.13;3.93;;;;;;;10.07;88.21;95893.50;4312331;32;20264;-57
2023/05/04 04:58:33;;;;;;;4.87;4.47;;;;;;;10.03;88.13;95890.63;4282298;33;20194;-57
2023/05/04 05:01:03;;;;;;;3.00;2.90;;;;;;;10.17;87.80;95896.91;4326791;32;20239;-57
2023/05/04 05:03:29;;;;;;;4.73;4.43;;;;;;;10.22;87.88;95890.78;4326396;32;20224;-59
2023/05/04 05:05:55;;;;;;;4.13;3.73;;;;;;;10.08;88.59;95893.25;4327766;32;20202;-57
2023/05/04 05:08:27;;;;;;;4.23;4.03;;;;;;;10.43;87.21;95899.38;4273177;33;20205;-58
2023/05/04 05:10:55;;;;;;;3.83;3.63;;;;;;;10.43;86.92;95892.22;4334500;32;20241;-58
2023/05/04 05:13:21;;;;;;;4.13;3.93;;;;;;;10.68;85.51;95896.50;4313355;32;20264;-57
2023/05/04 05:15:46;;;;;;;4.50;4.20;;;;;;;10.44;86.82;95898.31;4317257;32;20186;-56
2023/05/04 05:18:13;;;;;;;4.50;4.07;;;;;;;10.47;86.35;95906.50;4312197;32;20232;-57
2023/05/04 05:20:38;;;;;;;5.67;4.03;;;;;;;10.53;86.28;95901.97;4308859;33;20281;-57
2023/05/04 05:23:04;;;;;;;4.40;4.10;;;;;;;10.49;86.62;95898.28;4304130;32;20198;-56
2023/05/04 05:25:30;;;;;;;4.10;3.77;;;;;;;10.65;85.99;95895.19;4306674;32;20194;-58
2023/05/04 05:27:57;;;;;;;3.37;3.27;;;;;;;10.52;86.46;95892.41;4311723;32;20252;-57
2023/05/04 05:30:23;;;;;;;3.53;3.33;;;;;;;10.61;86.45;95896.03;4329563;32;20246;-59
2023/05/04 05:32:53;;;;;;;3.13;3.03;;;;;;;10.56;86.50;95893.44;4296630;32;20198;-56
2023/05/04 05:35:20;;;;;;;4.27;3.97;;;;;;;10.68;86.17;95892.00;4279510;33;20209;-57
2023/05/04 05:37:48;;;;;;;3.63;3.43;;;;;;;10.68;86.13;95897.31;4336071;32;20193;-57
2023/05/04 05:40:14;;;;;;;3.50;2.50;;;;;;;10.59;86.31;95893.69;4292446;32;20283;-57
2023/05/04 05:42:41;;;;;;;3.93;3.63;;;;;;;10.51;86.74;95894.28;4292671;32;20220;-57
2023/05/04 05:45:09;;;;;;;4.17;3.87;;;;;;;10.56;87.06;95888.16;4311393;32;20228;-57
2023/05/04 05:47:39;;;;;;;3.37;3.17;;;;;;;10.57;86.88;95895.81;4325357;32;20260;-57
2023/05/04 05:50:08;;;;;;;3.57;3.37;;;;;;;10.63;86.42;95899.19;4328017;32;20253;-58
2023/05/04 05:52:33;;;;;;;3.73;3.53;;;;;;;10.67;86.42;95902.88;4296239;32;20211;-57
2023/05/04 05:54:59;;;;;;;3.93;3.73;;;;;;;10.75;86.09;95896.19;4321451;32;20185;-57
2023/05/04 05:57:25;;;;;;;4.17;3.87;;;;;;;10.77;85.90;95899.38;4304760;33;20269;-56
2023/05/04 05:59:50;;;;;;;2.77;2.67;;;;;;;10.70;86.54;95905.00;4334817;32;20189;-57
2023/05/04 06:02:17;;;;;;;3.20;3.10;;;;;;;10.69;86.32;95900.75;4317779;32;20213;-56
2023/05/04 06:04:45;;;;;;;3.27;3.07;;;;;;;10.75;86.07;95902.28;4310991;32;20225;-57
2023/05/04 06:07:15;;;;;;;3.43;2.33;;;;;;;10.71;86.43;95901.25;4326591;32;20219;-47
2023/05/04 06:09:41;;;;;;;2.33;2.07;;;;;;;10.87;88.22;95900.03;4323269;32;20189;-49
2023/05/04 06:12:12;;;;;;;2.43;2.33;;;;;;;12.60;100.00;95895.16;4312721;32;20230;-49
2023/05/04 06:14:46;;;;;;;3.30;3.00;;;;;;;13.23;97.83;95894.63;4330763;32;20189;-50
2023/05/04 06:17:13;;;;;;;2.27;2.17;;;;;;;13.84;88.25;95888.06;4323255;32;20222;-52
2023/05/04 06:19:39;;;;;;;2.83;2.73;;;;;;;14.43;83.09;95884.34;4319448;32;20186;-53
2023/05/04 06:22:07;;;;;;;2.80;2.70;;;;;;;14.82;82.95;95894.31;4282048;33;20225;-52
2023/05/04 06:24:37;;;;;;;3.67;3.47;;;;;;;15.03;78.31;95889.25;4334143;32;20198;-51
2023/05/04 06:27:11;;;;;;;2.43;1.73;;;;;;;15.30;75.99;95896.31;4311365;32;20253;-52
2023/05/04 06:29:40;;;;;;;2.07;1.63;;;;;;;15.70;80.49;95900.56;4296987;32;20197;-51
2023/05/04 06:32:08;;;;;;;2.57;1.83;;;;;;;16.07;81.29;95885.81;4308845;32;20213;-50
2023/05/04 06:34:33;;;;;;;3.63;2.57;;;;;;;16.35;81.45;95880.94;4327381;32;20193;-48
2023/05/04 06:37:01;;;;;;;1.93;1.87;;;;;;;16.56;79.19;95872.25;4320974;32;20203;-50
2023/05/04 06:39:30;;;;;;;2.10;2.00;;;;;;;16.67;75.82;95878.88;4322277;32;20240;-54
2023/05/04 06:41:57;;;;;;;1.70;1.60;;;;;;;16.90;77.03;95877.56;4295357;32;20272;-51
2023/05/04 06:44:38;;;;;;;2.40;2.30;;;;;;;17.07;74.88;95874.84;4279783;32;20253;-49
2023/05/04 06:47:04;;;;;;;2.47;2.37;;;;;;;16.85;69.87;95877.72;4293507;32;20197;-49
2023/05/04 06:49:35;;;;;;;2.03;1.93;;;;;;;16.73;68.22;95878.41;4303021;32;20258;-50
2023/05/04 06:52:01;;;;;;;2.40;2.30;;;;;;;16.81;67.70;95871.47;4249427;32;20202;-52
2023/05/04 06:54:28;;;;;;;1.57;1.57;;;;;;;16.73;67.48;95874.94;4303527;32;20208;-50
2023/05/04 06:56:57;;;;;;;2.33;2.23;;;;;;;16.68;66.67;95875.09;4300784;32;20197;-53
2023/05/04 06:59:26;;;;;;;1.97;1.87;;;;;;;16.53;66.07;95879.03;4309783;32;20240;-58
2023/05/04 07:02:01;;;;;;;2.20;2.10;;;;;;;16.44;71.70;95873.66;4282625;32;20261;-50
2023/05/04 07:04:29;;;;;;;3.33;2.30;;;;;;;16.61;69.86;95872.88;4310297;33;20240;-52
2023/05/04 07:06:55;;;;;;;1.77;1.77;;;;;;;16.58;68.64;95864.69;4327531;32;20208;-50
2023/05/04 07:09:21;;;;;;;1.97;1.87;;;;;;;16.62;67.18;95871.78;4346577;32;20220;-50
2023/05/04 07:11:48;;;;;;;2.33;2.23;;;;;;;16.53;66.26;95865.62;4342604;32;20189;-52
2023/05/04 07:14:20;;;;;;;1.57;1.50;;;;;;;16.57;67.14;95869.25;4339847;32;20193;-53
2023/05/04 07:16:47;;;;;;;1.30;1.30;;;;;;;16.45;66.97;95863.75;4288479;32;20214;-49
2023/05/04 07:19:14;;;;;;;2.50;2.40;;;;;;;16.53;66.88;95864.84;4276406;32;21629;-53
2023/05/04 07:21:41;;;;;;;1.67;1.57;;;;;;;16.48;66.70;95876.50;4301466;32;20198;-49
2023/05/04 07:24:10;;;;;;;1.73;1.73;;;;;;;16.46;66.54;95863.44;4282589;33;20257;-49
2023/05/04 07:26:39;;;;;;;1.90;1.80;;;;;;;16.40;66.41;95859.38;4325065;32;20291;-49
2023/05/04 07:29:06;;;;;;;2.87;2.67;;;;;;;16.29;66.31;95863.44;4305593;32;20181;-53
2023/05/04 07:31:37;;;;;;;1.97;1.87;;;;;;;16.32;66.76;95862.81;4336985;32;20250;-46
2023/05/04 07:34:03;;;;;;;1.83;1.73;;;;;;;16.38;67.36;95861.56;4313316;32;20201;-50
2023/05/04 07:36:29;;;;;;;2.30;2.20;;;;;;;16.50;67.55;95860.91;4314521;32;20193;-51
2023/05/04 07:38:55;;;;;;;1.30;1.27;;;;;;;16.80;66.40;95857.28;4319057;32;20208;-49
2023/05/04 07:41:20;;;;;;;4.50;2.97;;;;;;;17.22;69.26;95862.03;4325942;33;20220;-49
2023/05/04 07:43:50;;;;;;;1.73;1.73;;;;;;;17.18;68.16;95857.28;4331038;32;20292;-51
2023/05/04 07:46:20;;;;;;;1.90;1.73;;;;;;;17.66;66.12;95856.16;4307721;32;20228;-51
2023/05/04 07:48:48;;;;;;;2.03;1.93;;;;;;;17.53;64.40;95852.53;4309618;32;20284;-53
2023/05/04 07:51:15;;;;;;;1.57;1.53;;;;;;;17.89;63.29;95848.56;4341348;32;20289;-61
2023/05/04 07:53:45;;;;;;;1.97;1.87;;;;;;;16.88;62.39;95869.06;4312758;32;20208;-59
2023/05/04 07:56:15;;;;;;;1.17;1.17;;;;;;;16.01;64.76;95867.53;4281549;32;20215;-61
2023/05/04 07:58:45;;;;;;;1.53;1.53;;;;;;;15.81;65.89;95863.56;4253519;33;20191;-59
2023/05/04 08:01:13;;;;;;;1.53;1.50;;;;;;;15.47;67.15;95862.37;4317048;32;20216;-59
2023/05/04 08:03:39;;;;;;;1.53;1.53;;;;;;;15.20;67.23;95856.47;4296573;32;20185;-59
2023/05/04 08:06:04;;;;;;;1.97;1.87;;;;;;;14.99;67.93;95869.59;4320765;32;20263;-61
2023/05/04 08:08:30;;;;;;;2.23;2.07;;;;;;;14.41;69.40;95862.50;4317370;32;20206;-59
2023/05/04 08:10:55;;;;;;;1.97;1.87;;;;;;;14.52;69.99;95855.03;4318085;32;20259;-60
2023/05/04 08:13:21;;;;;;;1.37;1.37;;;;;;;14.54;68.96;95858.19;4296435;32;20199;-59
2023/05/04 08:15:47;;;;;;;2.00;1.90;;;;;;;14.69;69.07;95855.94;4304157;33;20202;-60
2023/05/04 08:18:14;;;;;;;4.40;2.50;;;;;;;14.64;69.44;95853.38;4335255;32;20312;-59
2023/05/04 08:20:40;;;;;;;1.83;1.83;;;;;;;14.78;68.18;95853.28;4325608;32;20224;-59
2023/05/04 08:23:07;;;;;;;2.13;1.93;;;;;;;14.91;68.08;95847.09;4287528;33;20424;-60
2023/05/04 08:25:33;;;;;;;1.47;1.37;;;;;;;14.96;66.33;95852.31;4320586;32;20189;-60
2023/05/04 08:28:00;;;;;;;1.20;1.20;;;;;;;15.03;66.65;95855.31;4328502;32;20217;-60
2023/05/04 08:30:25;;;;;;;1.63;1.53;;;;;;;15.04;65.92;95848.88;4324050;32;20212;-60
2023/05/04 08:32:54;;;;;;;1.77;1.67;;;;;;;15.15;64.49;95851.28;4315705;32;20198;-59
2023/05/04 08:35:24;;;;;;;1.07;1.07;;;;;;;15.25;62.55;95853.66;4303001;32;20217;-59
2023/05/04 08:37:50;;;;;;;3.20;1.70;;;;;;;15.20;61.66;95854.56;4351148;32;20299;-59
2023/05/04 08:40:17;;;;;;;1.37;1.27;;;;;;;15.23;62.23;95851.28;4322444;32;20213;-60
2023/05/04 08:42:46;;;;;;;0.70;0.70;;;;;;;15.31;61.95;95847.09;4307930;32;20294;-59
2023/05/04 08:45:15;;;;;;;5.03;2.33;;;;;;;15.39;60.40;95849.75;4334798;32;20322;-60
2023/05/04 08:47:42;;;;;;;2.30;1.33;;;;;;;15.38;61.10;95850.09;4307767;33;20197;-60
2023/05/04 08:50:12;;;;;;;1.33;1.33;;;;;;;15.42;62.92;95848.34;4290646;33;20202;-59
2023/05/04 08:52:47;;;;;;;1.00;1.00;;;;;;;15.46;59.98;95852.78;4332692;32;20217;-60
2023/05/04 08:55:15;;;;;;;1.57;1.47;;;;;;;15.56;59.15;95846.41;4318603;32;20295;-59
2023/05/04 08:57:43;;;;;;;1.63;1.53;;;;;;;15.70;58.48;95852.41;4293349;32;20198;-60
2023/05/04 09:00:15;;;;;;;4.07;1.40;;;;;;;15.77;58.02;95858.09;4292285;33;20264;-60
2023/05/04 09:02:43;;;;;;;1.00;1.00;;;;;;;15.71;58.97;95843.28;4302728;33;20216;-60
2023/05/04 09:05:10;;;;;;;3.40;1.30;;;;;;;15.80;58.38;95844.06;4294750;33;20205;-60
2023/05/04 09:07:35;;;;;;;0.63;0.63;;;;;;;15.86;58.58;95835.88;4327934;32;20209;-60
2023/05/04 09:10:02;;;;;;;1.80;1.73;;;;;;;15.93;56.99;95844.25;4338834;32;20198;-60
2023/05/04 09:12:28;;;;;;;0.93;0.93;;;;;;;15.93;57.60;95845.03;4305675;33;20292;-60
2023/05/04 09:14:53;;;;;;;1.30;1.30;;;;;;;16.07;56.84;95842.97;4322595;32;20205;-61
2023/05/04 09:17:27;;;;;;;2.53;2.03;;;;;;;16.18;54.80;95840.78;4297707;32;20256;-59
2023/05/04 09:20:03;;;;;;;1.23;1.23;;;;;;;16.16;55.75;95837.63;4326034;32;20197;-60
2023/05/04 09:22:32;;;;;;;1.37;1.37;;;;;;;16.21;56.94;95840.13;4329406;32;20244;-59
2023/05/04 09:25:13;;;;;;;0.90;0.90;;;;;;;16.13;55.84;95839.06;4279776;32;20201;-59
2023/05/04 09:27:41;;;;;;;1.10;1.10;;;;;;;16.12;53.35;95829.44;4302683;32;20238;-59
2023/05/04 09:30:08;;;;;;;1.00;1.00;;;;;;;16.27;52.42;95833.53;4274471;32;20229;-59
2023/05/04 09:32:51;;;;;;;0.77;0.77;;;;;;;16.26;53.70;95823.13;4334470;32;20210;-60
2023/05/04 09:35:29;;;;;;;1.17;1.17;;;;;;;16.32;53.35;95821.88;4325182;32;20190;-60
2023/05/04 09:37:56;;;;;;;0.80;0.80;;;;;;;16.39;52.10;95830.22;4303789;33;20208;-60
2023/05/04 09:40:36;;;;;;;1.90;1.43;;;;;;;16.47;51.54;95826.72;4299068;33;20202;-59
2023/05/04 09:43:03;;;;;;;1.30;1.30;;;;;;;16.56;52.72;95822.16;4302325;32;20197;-59
2023/05/04 09:45:42;;;;;;;1.23;1.23;;;;;;;16.66;52.36;95824.50;4322335;32;20203;-60
2023/05/04 09:48:25;;;;;;;1.57;1.50;;;;;;;16.71;53.75;95821.66;4334774;32;20202;-60
2023/05/04 09:51:06;;;;;;;3.07;2.73;;;;;;;16.78;54.12;95821.97;4285238;33;20221;-60
2023/05/04 09:53:32;;;;;;;1.53;1.43;;;;;;;16.78;53.19;95821.19;4316635;33;20224;-60
2023/05/04 09:56:32;;;;;;;1.97;1.87;;;;;;;16.71;53.56;95816.31;4301453;33;20241;-60
2023/05/04 09:58:59;;;;;;;0.93;0.83;;;;;;;16.71;53.96;95810.94;4288321;32;20239;-60
2023/05/04 10:01:27;;;;;;;1.10;1.10;;;;;;;16.79;54.37;95812.81;4289258;33;20202;-60
2023/05/04 10:03:53;;;;;;;1.53;1.47;;;;;;;16.96;52.52;95816.53;4316055;32;20178;-60
2023/05/04 10:06:20;;;;;;;2.03;1.77;;;;;;;16.87;52.29;95803.16;4287677;33;20268;-60
2023/05/04 10:08:48;;;;;;;1.30;1.30;;;;;;;16.91;51.87;95804.09;4311266;33;20194;-59
2023/05/04 10:11:17;;;;;;;0.97;0.97;;;;;;;16.95;51.11;95794.31;4319470;32;20263;-59
2023/05/04 10:13:53;;;;;;;0.80;0.80;;;;;;;16.97;51.53;95797.47;4268937;33;21851;-60
2023/05/04 10:16:56;;;;;;;1.00;1.00;;;;;;;16.95;52.43;95799.66;4326079;33;20207;-59
2023/05/04 10:19:34;;;;;;;0.90;0.90;;;;;;;17.06;51.19;95790.16;4299090;33;20217;-60
2023/05/04 10:22:47;;;;;;;0.93;0.93;;;;;;;16.98;50.32;95785.63;4315165;33;20220;-60
2023/05/04 10:25:34;;;;;;;0.70;0.70;;;;;;;17.02;50.15;95789.25;4245574;33;20191;-60
2023/05/04 10:28:28;;;;;;;1.43;1.43;;;;;;;17.11;50.47;95789.97;4313110;32;20214;-59
2023/05/04 10:30:57;;;;;;;2.27;2.10;;;;;;;17.17;50.55;95791.38;4262278;33;20337;-64
2023/05/04 10:33:25;;;;;;;1.57;1.47;;;;;;;17.22;50.66;95778.91;4328482;32;20201;-59
2023/05/04 10:35:53;;;;;;;2.10;2.00;;;;;;;17.28;50.38;95786.41;4329439;32;20190;-60
2023/05/04 10:38:43;;;;;;;1.07;1.07;;;;;;;17.42;51.00;95780.81;4317897;32;20207;-60
2023/05/04 10:41:20;;;;;;;0.73;0.73;;;;;;;17.43;49.46;95777.81;4334563;32;20235;-60
2023/05/04 10:43:51;;;;;;;1.00;1.00;;;;;;;17.49;49.30;95781.06;4321278;32;20248;-59
2023/05/04 10:46:21;;;;;;;3.10;2.83;;;;;;;17.44;49.21;95779.41;4310160;33;20204;-60
2023/05/04 10:48:50;;;;;;;1.47;1.40;;;;;;;17.44;48.72;95782.06;4310856;32;20215;-59
2023/05/04 10:51:31;;;;;;;1.50;1.50;;;;;;;17.34;48.06;95778.97;4292631;33;20201;-59
2023/05/04 10:54:15;;;;;;;1.07;1.07;;;;;;;17.37;48.76;95775.66;4326999;32;20207;-60
2023/05/04 10:56:41;;;;;;;1.03;1.03;;;;;;;17.38;48.68;95774.53;4327465;32;20184;-60
2023/05/04 10:59:32;;;;;;;1.33;1.23;;;;;;;17.45;48.02;95774.81;4323837;32;20206;-60
2023/05/04 11:02:04;;;;;;;1.70;1.63;;;;;;;17.56;48.68;95769.84;4293595;32;20198;-60
2023/05/04 11:04:31;;;;;;;1.20;1.20;;;;;;;17.59;49.07;95759.25;4331650;32;20243;-60
2023/05/04 11:07:07;;;;;;;0.90;0.90;;;;;;;17.70;52.48;95770.37;4324765;32;20251;-60
2023/05/04 11:09:45;;;;;;;0.80;0.80;;;;;;;17.62;50.55;95755.13;4273360;32;20247;-60
2023/05/04 11:12:15;;;;;;;1.33;1.33;;;;;;;17.68;48.37;95759.19;4323924;32;20272;-60
2023/05/04 11:14:42;;;;;;;1.13;1.13;;;;;;;17.72;47.97;95763.59;4320431;32;20251;-60
2023/05/04 11:17:11;;;;;;;1.10;1.10;;;;;;;17.72;49.38;95758.22;4315970;32;20251;-60
2023/05/04 11:19:51;;;;;;;0.83;0.83;;;;;;;17.65;49.68;95767.91;4306324;32;20235;-59
2023/05/04 11:22:17;;;;;;;0.90;0.90;;;;;;;17.64;50.13;95758.28;4299739;32;20257;-60
2023/05/04 11:24:47;;;;;;;1.00;1.00;;;;;;;17.72;48.32;95758.22;4313635;32;20224;-59
2023/05/04 11:27:29;;;;;;;2.27;2.07;;;;;;;17.65;47.89;95757.19;4323515;32;20190;-61
2023/05/04 11:30:06;;;;;;;1.23;1.23;;;;;;;17.71;50.45;95748.59;4323920;32;20208;-60
2023/05/04 11:32:52;;;;;;;5.20;1.13;;;;;;;17.78;47.81;95745.41;4323005;33;20208;-59
2023/05/04 11:35:23;;;;;;;0.67;0.67;;;;;;;17.72;46.25;95744.78;4306263;33;20391;-60
2023/05/04 11:37:49;;;;;;;1.17;1.17;;;;;;;17.78;45.99;95748.87;4270707;33;20198;-59
2023/05/04 11:40:18;;;;;;;1.53;1.50;;;;;;;17.88;47.83;95739.59;4321002;33;20240;-59
2023/05/04 11:42:44;;;;;;;0.70;0.70;;;;;;;17.80;48.92;95722.47;4291812;33;20279;-59